Time;durP1;ratioP1;P1;durP2;ratioP2;P2;SDS_P1;SDS_P2;PMS_P1;PMS_P2;Temp;Humidity;BMP_temperature;BMP_pressure;BME280_temperature;BME280_humidity;BME280_pressure;Samples;Min_cycle;Max_cycle;Signal;HPM_P1;HPM_P2
2023/09/12 00:02:09;;;;;;;30.95;23.33;;;;;;;;;;5062039;28;20459;-65
2023/09/12 00:04:35;;;;;;;26.02;22.63;;;;;;;;;;5062126;28;22177;-64
2023/09/12 00:07:02;;;;;;;27.92;22.35;;;;;;;;;;5062065;28;20070;-64
2023/09/12 00:09:28;;;;;;;31.10;25.17;;;;;;;;;;5061217;28;20116;-64
2023/09/12 00:11:54;;;;;;;28.25;22.60;;;;;;;;;;5061725;28;20040;-64
2023/09/12 00:14:20;;;;;;;28.13;24.13;;;;;;;;;;5062040;28;20036;-64
2023/09/12 00:16:47;;;;;;;26.25;22.35;;;;;;;;;;5062779;28;20032;-64
2023/09/12 00:19:14;;;;;;;30.33;24.30;;;;;;;;;;5062169;28;20471;-64
2023/09/12 00:21:41;;;;;;;25.65;20.95;;;;;;;;;;5062542;28;20151;-64
2023/09/12 00:24:07;;;;;;;25.25;21.88;;;;;;;;;;5061955;28;20032;-64
2023/09/12 00:26:33;;;;;;;27.42;22.67;;;;;;;;;;5060035;28;20047;-64
2023/09/12 00:28:59;;;;;;;25.25;22.38;;;;;;;;;;5061595;28;20043;-64
2023/09/12 00:31:25;;;;;;;29.20;23.35;;;;;;;;;;5058932;28;20109;-63
2023/09/12 00:33:51;;;;;;;26.55;21.92;;;;;;;;;;5062326;28;20059;-64
2023/09/12 00:36:17;;;;;;;26.05;22.48;;;;;;;;;;5062063;28;20029;-63
2023/09/12 00:38:43;;;;;;;24.23;21.08;;;;;;;;;;5061892;28;20028;-64
2023/09/12 00:41:09;;;;;;;26.25;21.67;;;;;;;;;;5023680;28;1099098;-64
2023/09/12 00:43:35;;;;;;;28.08;22.90;;;;;;;;;;5062571;28;20047;-64
2023/09/12 00:46:01;;;;;;;28.98;23.02;;;;;;;;;;5066589;28;20089;-64
2023/09/12 00:48:27;;;;;;;26.80;22.45;;;;;;;;;;5066988;28;20042;-64
2023/09/12 00:50:54;;;;;;;27.35;22.35;;;;;;;;;;5065730;28;20020;-64
2023/09/12 00:53:20;;;;;;;25.55;22.85;;;;;;;;;;5066055;28;20032;-64
2023/09/12 00:55:50;;;;;;;25.67;21.42;;;;;;;;;;5064467;28;20028;-64
2023/09/12 00:58:16;;;;;;;27.42;23.70;;;;;;;;;;5065990;28;20198;-64
2023/09/12 01:00:42;;;;;;;28.27;24.38;;;;;;;;;;5066399;28;20043;-64
2023/09/12 01:03:08;;;;;;;28.45;24.23;;;;;;;;;;5066203;28;20087;-64
2023/09/12 01:05:34;;;;;;;30.48;25.08;;;;;;;;;;5066261;28;20998;-64
2023/09/12 01:08:01;;;;;;;27.90;23.58;;;;;;;;;;5065680;28;20032;-64
2023/09/12 01:10:27;;;;;;;27.65;24.42;;;;;;;;;;5065633;28;20033;-64
2023/09/12 01:12:53;;;;;;;29.70;25.50;;;;;;;;;;5065523;28;20043;-65
2023/09/12 01:15:19;;;;;;;38.60;27.98;;;;;;;;;;5065918;28;20106;-63
2023/09/12 01:17:46;;;;;;;29.35;26.08;;;;;;;;;;5065493;28;20024;-63
2023/09/12 01:20:14;;;;;;;31.10;24.48;;;;;;;;;;5065436;28;20725;-63
2023/09/12 01:22:59;;;;;;;29.30;25.88;;;;;;;;;;5065405;28;20028;-63
2023/09/12 01:25:45;;;;;;;29.70;25.13;;;;;;;;;;5064436;28;20119;-63
2023/09/12 01:28:11;;;;;;;36.55;24.10;;;;;;;;;;5065498;28;20020;-64
2023/09/12 01:30:39;;;;;;;30.10;26.05;;;;;;;;;;5065941;28;20063;-64
2023/09/12 01:33:06;;;;;;;35.05;26.40;;;;;;;;;;5065831;28;20043;-64
2023/09/12 01:35:32;;;;;;;29.55;25.05;;;;;;;;;;5065339;28;20031;-64
2023/09/12 01:37:58;;;;;;;29.52;24.40;;;;;;;;;;5065804;28;20029;-64
2023/09/12 01:40:48;;;;;;;27.90;24.08;;;;;;;;;;5064760;28;20067;-64
2023/09/12 01:43:16;;;;;;;30.83;25.90;;;;;;;;;;5059699;28;20066;-65
2023/09/12 01:45:43;;;;;;;29.65;26.00;;;;;;;;;;5064920;28;20028;-64
2023/09/12 01:48:09;;;;;;;30.90;25.60;;;;;;;;;;5065989;28;20437;-64
2023/09/12 01:50:36;;;;;;;28.23;23.83;;;;;;;;;;5063683;28;20479;-64
2023/09/12 01:53:03;;;;;;;32.47;27.10;;;;;;;;;;5062704;28;20353;-63
2023/09/12 01:55:29;;;;;;;31.52;26.83;;;;;;;;;;5062204;28;20081;-64
2023/09/12 01:57:57;;;;;;;31.48;24.98;;;;;;;;;;5064163;28;20028;-64
2023/09/12 02:00:24;;;;;;;36.67;27.67;;;;;;;;;;5064195;28;20037;-64
2023/09/12 02:02:50;;;;;;;28.27;24.98;;;;;;;;;;5064224;28;20589;-64
2023/09/12 02:05:19;;;;;;;28.15;24.92;;;;;;;;;;5063907;28;20032;-64
2023/09/12 02:07:46;;;;;;;34.60;25.65;;;;;;;;;;5064334;28;20077;-64
2023/09/12 02:10:12;;;;;;;27.23;23.52;;;;;;;;;;5064201;28;20086;-64
2023/09/12 02:12:38;;;;;;;32.97;28.15;;;;;;;;;;5065712;28;20449;-64
2023/09/12 02:15:05;;;;;;;32.67;26.15;;;;;;;;;;5064792;28;20028;-63
2023/09/12 02:17:31;;;;;;;29.10;24.17;;;;;;;;;;5065384;28;20085;-64
2023/09/12 02:19:57;;;;;;;30.55;26.45;;;;;;;;;;5064739;28;20735;-64
2023/09/12 02:22:23;;;;;;;29.58;25.50;;;;;;;;;;5065020;28;20036;-64
2023/09/12 02:24:49;;;;;;;33.05;25.92;;;;;;;;;;5063139;28;20032;-64
2023/09/12 02:27:15;;;;;;;34.55;28.50;;;;;;;;;;5065371;28;20036;-63
2023/09/12 02:29:42;;;;;;;30.40;25.60;;;;;;;;;;5065789;28;20921;-64
2023/09/12 02:32:08;;;;;;;30.92;27.33;;;;;;;;;;5064719;28;21001;-64
2023/09/12 02:34:34;;;;;;;34.53;26.90;;;;;;;;;;5063534;28;20027;-63
2023/09/12 02:37:00;;;;;;;31.45;26.67;;;;;;;;;;5080209;28;20032;-63
2023/09/12 02:39:27;;;;;;;33.38;28.10;;;;;;;;;;5065053;28;20055;-64
2023/09/12 02:41:53;;;;;;;30.08;26.80;;;;;;;;;;5062846;28;20090;-64
2023/09/12 02:44:19;;;;;;;34.25;29.38;;;;;;;;;;5064040;28;20027;-63
2023/09/12 02:46:45;;;;;;;34.13;27.33;;;;;;;;;;5064574;28;20044;-64
2023/09/12 02:49:11;;;;;;;29.67;25.65;;;;;;;;;;5063992;28;20040;-64
2023/09/12 02:51:41;;;;;;;29.77;25.55;;;;;;;;;;5064176;28;20036;-64
2023/09/12 02:54:07;;;;;;;31.65;26.00;;;;;;;;;;5064229;28;20031;-63
2023/09/12 02:56:33;;;;;;;31.48;26.10;;;;;;;;;;5063547;28;20043;-63
2023/09/12 02:58:59;;;;;;;30.75;26.33;;;;;;;;;;5063354;28;20036;-63
2023/09/12 03:01:28;;;;;;;34.20;28.35;;;;;;;;;;5063583;28;20044;-63
2023/09/12 03:03:54;;;;;;;30.40;25.65;;;;;;;;;;5063778;28;20043;-64
2023/09/12 03:06:21;;;;;;;29.73;24.83;;;;;;;;;;5061906;28;20043;-64
2023/09/12 03:08:47;;;;;;;30.67;24.73;;;;;;;;;;5063727;28;20032;-63
2023/09/12 03:11:14;;;;;;;33.20;26.52;;;;;;;;;;5063751;28;20036;-64
2023/09/12 03:13:41;;;;;;;29.58;24.15;;;;;;;;;;5064263;28;20033;-64
2023/09/12 03:16:11;;;;;;;27.42;23.88;;;;;;;;;;5062958;28;20949;-64
2023/09/12 03:18:37;;;;;;;27.67;24.05;;;;;;;;;;5063292;28;20027;-64
2023/09/12 03:21:03;;;;;;;34.17;27.40;;;;;;;;;;5064117;28;20035;-64
2023/09/12 03:23:29;;;;;;;31.42;25.73;;;;;;;;;;5062120;28;20039;-63
2023/09/12 03:25:55;;;;;;;30.77;24.08;;;;;;;;;;5063197;28;20514;-63
2023/09/12 03:28:21;;;;;;;32.92;25.67;;;;;;;;;;5061508;28;20028;-63
2023/09/12 03:30:47;;;;;;;31.60;26.17;;;;;;;;;;5063723;28;20098;-64
2023/09/12 03:33:13;;;;;;;28.67;23.33;;;;;;;;;;5062617;28;20051;-64
2023/09/12 03:35:39;;;;;;;29.30;24.38;;;;;;;;;;5063593;28;20043;-64
2023/09/12 03:38:05;;;;;;;32.10;24.45;;;;;;;;;;5062558;28;20044;-64
2023/09/12 03:40:32;;;;;;;35.05;27.52;;;;;;;;;;5062011;28;20048;-63
2023/09/12 03:42:58;;;;;;;32.28;24.67;;;;;;;;;;5063611;28;20708;-63
2023/09/12 03:45:24;;;;;;;32.72;25.90;;;;;;;;;;5062742;28;20032;-63
2023/09/12 03:47:51;;;;;;;32.58;26.55;;;;;;;;;;5062891;28;20070;-64
2023/09/12 03:50:17;;;;;;;27.65;22.88;;;;;;;;;;5063132;28;20103;-64
2023/09/12 03:52:43;;;;;;;30.55;22.10;;;;;;;;;;5063556;28;20029;-64
2023/09/12 03:55:10;;;;;;;33.67;24.02;;;;;;;;;;5062621;28;20059;-64
2023/09/12 03:57:36;;;;;;;32.80;24.48;;;;;;;;;;5063089;28;20111;-64
2023/09/12 04:00:06;;;;;;;28.50;23.58;;;;;;;;;;5062671;28;20226;-64
2023/09/12 04:02:32;;;;;;;30.88;25.10;;;;;;;;;;5061057;28;20034;-64
2023/09/12 04:04:59;;;;;;;30.42;24.90;;;;;;;;;;5060832;28;20036;-64
2023/09/12 04:07:25;;;;;;;31.90;25.33;;;;;;;;;;5060166;28;20024;-64
2023/09/12 04:09:51;;;;;;;32.13;24.45;;;;;;;;;;5058566;28;20032;-63
2023/09/12 04:12:17;;;;;;;35.20;25.58;;;;;;;;;;5061936;28;20028;-63
2023/09/12 04:14:43;;;;;;;28.42;24.52;;;;;;;;;;5062154;28;20565;-64
2023/09/12 04:17:09;;;;;;;31.38;24.58;;;;;;;;;;5062648;28;20558;-64
2023/09/12 04:19:36;;;;;;;31.20;26.27;;;;;;;;;;5063909;28;21808;-63
2023/09/12 04:22:04;;;;;;;30.63;25.30;;;;;;;;;;5067171;28;20062;-64
2023/09/12 04:24:30;;;;;;;36.20;24.30;;;;;;;;;;5067189;28;20127;-64
2023/09/12 04:26:56;;;;;;;29.88;25.38;;;;;;;;;;5067691;28;20463;-64
2023/09/12 04:29:22;;;;;;;34.50;26.60;;;;;;;;;;5067046;28;21038;-64
2023/09/12 04:31:48;;;;;;;31.05;24.00;;;;;;;;;;5066575;28;21715;-63
2023/09/12 04:34:14;;;;;;;31.98;25.27;;;;;;;;;;5067101;28;20310;-64
2023/09/12 04:36:40;;;;;;;33.92;24.77;;;;;;;;;;5066842;28;20085;-63
2023/09/12 04:39:06;;;;;;;27.08;22.95;;;;;;;;;;5066748;28;20035;-63
2023/09/12 04:41:32;;;;;;;30.23;24.70;;;;;;;;;;5066595;28;20585;-64
2023/09/12 04:44:00;;;;;;;28.05;22.83;;;;;;;;;;5066905;28;20487;-64
2023/09/12 04:46:26;;;;;;;37.85;26.33;;;;;;;;;;5067039;28;20039;-63
2023/09/12 04:48:52;;;;;;;35.42;25.75;;;;;;;;;;5066662;28;20039;-64
2023/09/12 04:51:18;;;;;;;30.95;23.33;;;;;;;;;;5066270;28;20040;-63
2023/09/12 04:53:44;;;;;;;34.15;23.55;;;;;;;;;;5065863;28;20085;-64
2023/09/12 04:56:11;;;;;;;31.38;24.52;;;;;;;;;;5066659;28;20065;-64
2023/09/12 04:58:37;;;;;;;32.65;25.58;;;;;;;;;;5066926;28;20029;-63
2023/09/12 05:01:03;;;;;;;27.83;23.10;;;;;;;;;;5064792;28;20032;-63
2023/09/12 05:03:29;;;;;;;38.20;25.27;;;;;;;;;;5066569;28;20085;-63
2023/09/12 05:05:55;;;;;;;36.35;26.13;;;;;;;;;;5065467;28;20607;-64
2023/09/12 05:08:22;;;;;;;35.03;24.65;;;;;;;;;;5064352;28;20863;-64
2023/09/12 05:10:49;;;;;;;31.45;25.35;;;;;;;;;;5066789;28;20155;-63
2023/09/12 05:13:15;;;;;;;34.47;26.58;;;;;;;;;;5066682;28;20047;-63
2023/09/12 05:15:42;;;;;;;31.85;25.20;;;;;;;;;;5066134;28;20888;-64
2023/09/12 05:18:08;;;;;;;43.75;28.77;;;;;;;;;;5066370;28;20024;-64
2023/09/12 05:20:34;;;;;;;33.22;26.17;;;;;;;;;;5066413;28;20145;-64
2023/09/12 05:23:01;;;;;;;33.13;25.50;;;;;;;;;;5064322;28;20111;-64
2023/09/12 05:25:27;;;;;;;34.05;25.55;;;;;;;;;;5065140;28;20047;-64
2023/09/12 05:27:53;;;;;;;33.70;26.98;;;;;;;;;;5065382;28;20479;-64
2023/09/12 05:30:19;;;;;;;35.40;27.38;;;;;;;;;;5064482;28;20067;-64
2023/09/12 05:32:45;;;;;;;49.85;30.85;;;;;;;;;;5064513;28;20505;-63
2023/09/12 05:35:11;;;;;;;44.38;30.42;;;;;;;;;;5065243;28;20056;-63
2023/09/12 05:37:37;;;;;;;48.35;30.60;;;;;;;;;;5065681;28;20028;-63
2023/09/12 05:40:04;;;;;;;45.65;30.48;;;;;;;;;;5061092;28;20032;-63
2023/09/12 05:42:30;;;;;;;49.85;30.40;;;;;;;;;;5065565;28;20047;-63
2023/09/12 05:44:56;;;;;;;42.88;30.30;;;;;;;;;;5082978;28;21803;-63
2023/09/12 05:47:22;;;;;;;52.63;33.50;;;;;;;;;;5066031;28;20041;-64
2023/09/12 05:49:48;;;;;;;58.58;32.72;;;;;;;;;;5066311;28;20040;-63
2023/09/12 05:52:15;;;;;;;46.42;32.40;;;;;;;;;;5065352;28;20032;-63
2023/09/12 05:54:41;;;;;;;43.50;31.08;;;;;;;;;;5065408;28;20028;-63
2023/09/12 05:57:08;;;;;;;46.55;30.70;;;;;;;;;;5061956;28;20020;-63
2023/09/12 05:59:37;;;;;;;57.58;33.75;;;;;;;;;;5065876;28;21614;-63
2023/09/12 06:02:05;;;;;;;47.72;30.95;;;;;;;;;;5065426;28;20032;-63
2023/09/12 06:04:31;;;;;;;56.05;33.42;;;;;;;;;;5065429;28;20115;-63
2023/09/12 06:06:58;;;;;;;49.40;32.33;;;;;;;;;;5063045;28;20043;-64
2023/09/12 06:09:24;;;;;;;44.65;31.77;;;;;;;;;;5064234;28;20075;-63
2023/09/12 06:11:50;;;;;;;71.63;36.33;;;;;;;;;;5062980;28;20090;-64
2023/09/12 06:14:16;;;;;;;50.35;32.03;;;;;;;;;;5063014;28;20039;-63
2023/09/12 06:16:42;;;;;;;49.53;32.50;;;;;;;;;;5080835;28;20032;-63
2023/09/12 06:19:08;;;;;;;74.88;35.80;;;;;;;;;;5063562;28;20082;-63
2023/09/12 06:21:34;;;;;;;45.38;31.02;;;;;;;;;;5063566;28;20134;-63
2023/09/12 06:24:11;;;;;;;42.85;30.42;;;;;;;;;;5064074;28;20039;-63
2023/09/12 06:26:38;;;;;;;63.45;35.65;;;;;;;;;;5063685;28;20035;-64
2023/09/12 06:29:04;;;;;;;43.83;31.17;;;;;;;;;;5064800;28;20792;-63
2023/09/12 06:31:30;;;;;;;49.95;31.08;;;;;;;;;;5063451;28;20126;-63
2023/09/12 06:33:56;;;;;;;43.20;30.52;;;;;;;;;;5064191;28;20403;-63
2023/09/12 06:36:23;;;;;;;44.55;31.40;;;;;;;;;;5063129;28;20031;-63
2023/09/12 06:38:50;;;;;;;49.78;29.35;;;;;;;;;;5061863;28;20036;-63
2023/09/12 06:41:18;;;;;;;45.58;30.63;;;;;;;;;;5063511;28;20055;-63
2023/09/12 06:43:44;;;;;;;43.78;29.05;;;;;;;;;;5063327;28;20032;-63
2023/09/12 06:46:10;;;;;;;44.50;31.25;;;;;;;;;;5063573;28;20032;-63
2023/09/12 06:48:36;;;;;;;44.40;30.27;;;;;;;;;;5063821;28;20110;-63
2023/09/12 06:51:05;;;;;;;45.50;31.23;;;;;;;;;;5063718;28;20047;-63
2023/09/12 06:53:31;;;;;;;44.08;31.27;;;;;;;;;;5063671;28;20084;-63
2023/09/12 06:55:58;;;;;;;45.33;31.33;;;;;;;;;;5064152;28;20061;-63
2023/09/12 06:58:25;;;;;;;48.05;33.15;;;;;;;;;;5064454;28;20611;-63
2023/09/12 07:00:51;;;;;;;50.30;33.67;;;;;;;;;;5064610;28;20047;-63
2023/09/12 07:03:17;;;;;;;50.65;33.38;;;;;;;;;;5061745;28;20067;-63
2023/09/12 07:05:43;;;;;;;59.60;35.60;;;;;;;;;;5064293;28;20093;-64
2023/09/12 07:08:10;;;;;;;47.10;32.13;;;;;;;;;;5063620;28;20042;-63
2023/09/12 07:10:36;;;;;;;63.30;36.80;;;;;;;;;;5063949;28;20040;-63
2023/09/12 07:13:02;;;;;;;74.53;36.97;;;;;;;;;;5063945;28;20097;-63
2023/09/12 07:15:29;;;;;;;52.17;35.58;;;;;;;;;;5063469;28;20035;-63
2023/09/12 07:17:56;;;;;;;46.30;33.28;;;;;;;;;;5063072;28;20024;-63
2023/09/12 07:20:23;;;;;;;48.72;33.03;;;;;;;;;;5057085;28;20024;-63
2023/09/12 07:22:49;;;;;;;48.85;33.22;;;;;;;;;;5053163;28;20037;-63
2023/09/12 07:25:16;;;;;;;49.92;33.58;;;;;;;;;;5052790;28;20121;-63
2023/09/12 07:27:42;;;;;;;48.08;32.67;;;;;;;;;;5055008;28;20024;-63
2023/09/12 07:30:08;;;;;;;51.30;34.03;;;;;;;;;;5055169;28;20041;-63
2023/09/12 07:32:34;;;;;;;61.10;36.38;;;;;;;;;;5055134;28;20618;-63
2023/09/12 07:35:01;;;;;;;46.78;32.15;;;;;;;;;;5054070;28;20043;-63
2023/09/12 07:37:27;;;;;;;46.35;34.22;;;;;;;;;;5055156;28;20559;-64
2023/09/12 07:39:53;;;;;;;59.65;36.72;;;;;;;;;;5054681;28;21007;-63
2023/09/12 07:42:22;;;;;;;50.67;34.35;;;;;;;;;;5055644;28;20090;-63
2023/09/12 07:44:48;;;;;;;48.63;33.92;;;;;;;;;;5055092;28;20016;-63
2023/09/12 07:47:15;;;;;;;54.63;32.70;;;;;;;;;;5051759;28;20149;-63
2023/09/12 07:49:41;;;;;;;47.33;32.47;;;;;;;;;;5052606;28;20037;-64
2023/09/12 07:52:07;;;;;;;45.40;32.38;;;;;;;;;;5053889;28;20036;-63
2023/09/12 07:54:33;;;;;;;56.28;35.95;;;;;;;;;;5056424;28;20036;-64
2023/09/12 07:56:59;;;;;;;49.80;34.03;;;;;;;;;;5058271;28;20081;-63
2023/09/12 07:59:26;;;;;;;68.05;37.40;;;;;;;;;;5058943;28;20068;-63
2023/09/12 08:01:52;;;;;;;49.67;34.42;;;;;;;;;;5058221;28;20069;-63
2023/09/12 08:04:18;;;;;;;57.30;35.33;;;;;;;;;;5059060;28;20044;-63
2023/09/12 08:06:44;;;;;;;53.92;34.35;;;;;;;;;;5058377;28;20164;-63
2023/09/12 08:09:10;;;;;;;50.72;34.13;;;;;;;;;;5058789;28;20153;-63
2023/09/12 08:11:36;;;;;;;55.63;35.72;;;;;;;;;;5058255;28;20036;-63
2023/09/12 08:14:02;;;;;;;55.92;33.85;;;;;;;;;;5058900;28;20028;-63
2023/09/12 08:16:30;;;;;;;52.63;34.25;;;;;;;;;;5057277;28;20020;-63
2023/09/12 08:18:56;;;;;;;52.08;34.28;;;;;;;;;;5057721;28;20032;-63
2023/09/12 08:21:22;;;;;;;58.35;35.90;;;;;;;;;;5055093;28;20031;-63
2023/09/12 08:23:49;;;;;;;58.05;36.38;;;;;;;;;;5051681;28;20048;-63
2023/09/12 08:26:15;;;;;;;58.50;37.17;;;;;;;;;;5056103;28;20063;-63
2023/09/12 08:28:41;;;;;;;63.40;39.40;;;;;;;;;;5056230;28;20151;-63
2023/09/12 08:31:07;;;;;;;63.65;38.90;;;;;;;;;;5055638;28;20035;-63
2023/09/12 08:33:33;;;;;;;54.47;35.00;;;;;;;;;;5057888;28;20020;-64
2023/09/12 08:35:59;;;;;;;56.90;37.80;;;;;;;;;;5058196;28;20036;-63
2023/09/12 08:38:25;;;;;;;59.80;37.25;;;;;;;;;;5058641;28;20032;-63
2023/09/12 08:40:52;;;;;;;59.10;38.50;;;;;;;;;;5058368;28;20056;-63
2023/09/12 08:43:18;;;;;;;69.50;40.05;;;;;;;;;;5058576;28;20474;-64
2023/09/12 08:45:44;;;;;;;55.45;35.63;;;;;;;;;;5058589;28;20086;-63
2023/09/12 08:48:12;;;;;;;58.28;37.67;;;;;;;;;;5054454;28;20070;-63
2023/09/12 08:50:38;;;;;;;54.53;36.83;;;;;;;;;;5057926;28;20039;-64
2023/09/12 08:53:04;;;;;;;55.65;37.13;;;;;;;;;;5058981;28;21695;-63
2023/09/12 08:55:38;;;;;;;58.67;36.35;;;;;;;;;;5058161;28;20032;-63
2023/09/12 08:58:05;;;;;;;53.10;35.13;;;;;;;;;;5058223;28;20020;-63
2023/09/12 09:00:31;;;;;;;54.50;35.55;;;;;;;;;;5058600;28;20115;-63
2023/09/12 09:02:57;;;;;;;52.05;35.15;;;;;;;;;;5057564;28;20035;-63
2023/09/12 09:05:24;;;;;;;55.83;36.67;;;;;;;;;;5056802;28;20063;-63
2023/09/12 09:07:50;;;;;;;63.47;40.95;;;;;;;;;;5057458;28;21559;-64
2023/09/12 09:10:17;;;;;;;61.75;39.08;;;;;;;;;;5056329;28;20029;-63
2023/09/12 09:12:45;;;;;;;56.95;36.42;;;;;;;;;;5056590;28;20032;-63
2023/09/12 09:15:25;;;;;;;59.72;39.22;;;;;;;;;;5057378;28;20035;-63
2023/09/12 09:17:52;;;;;;;58.85;39.45;;;;;;;;;;5057584;28;20124;-63
2023/09/12 09:20:35;;;;;;;55.58;37.65;;;;;;;;;;5057457;28;20675;-63
2023/09/12 09:23:05;;;;;;;54.88;37.15;;;;;;;;;;5057168;28;20020;-63
2023/09/12 09:25:36;;;;;;;53.85;36.83;;;;;;;;;;5057195;28;20044;-63
2023/09/12 09:28:06;;;;;;;59.03;38.67;;;;;;;;;;5057314;28;20036;-64
2023/09/12 09:30:45;;;;;;;64.80;41.42;;;;;;;;;;5057516;28;20070;-63
2023/09/12 09:33:12;;;;;;;53.70;35.63;;;;;;;;;;5056900;28;20039;-63
2023/09/12 09:35:40;;;;;;;56.53;38.95;;;;;;;;;;5056591;28;20032;-63
2023/09/12 09:38:06;;;;;;;57.95;40.58;;;;;;;;;;5056400;28;20402;-64
2023/09/12 09:40:33;;;;;;;58.28;40.65;;;;;;;;;;5057778;28;20808;-63
2023/09/12 09:43:00;;;;;;;58.38;39.92;;;;;;;;;;5057439;28;20499;-63
2023/09/12 09:45:27;;;;;;;62.65;41.83;;;;;;;;;;5056783;28;21902;-63
2023/09/12 09:47:57;;;;;;;54.97;38.38;;;;;;;;;;5056905;28;20028;-64
2023/09/12 09:50:23;;;;;;;54.55;38.60;;;;;;;;;;5056455;28;20043;-64
2023/09/12 09:52:53;;;;;;;66.13;43.28;;;;;;;;;;5056527;28;20759;-64
2023/09/12 09:55:20;;;;;;;61.38;39.67;;;;;;;;;;5056162;28;20060;-64
2023/09/12 09:57:48;;;;;;;55.33;39.05;;;;;;;;;;5056330;28;20050;-64
2023/09/12 10:00:14;;;;;;;59.60;39.65;;;;;;;;;;5055586;28;20615;-63
2023/09/12 10:02:41;;;;;;;61.25;40.92;;;;;;;;;;5056512;28;20043;-63
2023/09/12 10:05:11;;;;;;;52.08;37.50;;;;;;;;;;5056005;28;20051;-64
2023/09/12 10:07:38;;;;;;;55.90;38.42;;;;;;;;;;5056448;28;21688;-63
2023/09/12 10:10:04;;;;;;;51.67;35.67;;;;;;;;;;5055131;28;20918;-63
2023/09/12 10:12:36;;;;;;;58.63;38.03;;;;;;;;;;5055773;28;20032;-64
2023/09/12 10:15:04;;;;;;;64.85;40.38;;;;;;;;;;5055694;28;20035;-63
2023/09/12 10:17:40;;;;;;;52.95;37.92;;;;;;;;;;5054394;28;20033;-64
2023/09/12 10:20:09;;;;;;;45.10;32.85;;;;;;;;;;5056265;28;20568;-64
2023/09/12 10:22:39;;;;;;;49.42;32.05;;;;;;;;;;5055963;28;20051;-64
2023/09/12 10:25:05;;;;;;;46.15;32.47;;;;;;;;;;5055245;28;20040;-64
2023/09/12 10:27:32;;;;;;;47.28;34.03;;;;;;;;;;5056094;28;20545;-64
2023/09/12 10:30:00;;;;;;;45.65;31.58;;;;;;;;;;5053035;28;21307;-64
2023/09/12 10:32:27;;;;;;;40.38;29.42;;;;;;;;;;5053230;28;20101;-64
2023/09/12 10:34:54;;;;;;;40.17;30.02;;;;;;;;;;5053708;28;20086;-64
2023/09/12 10:37:22;;;;;;;45.22;30.42;;;;;;;;;;5055038;28;20024;-64
2023/09/12 10:39:49;;;;;;;41.70;29.25;;;;;;;;;;5054494;28;20111;-64
2023/09/12 10:42:17;;;;;;;44.05;29.08;;;;;;;;;;5054343;28;20768;-64
2023/09/12 10:44:45;;;;;;;41.05;29.77;;;;;;;;;;5053002;28;20040;-63
2023/09/12 10:47:11;;;;;;;38.63;26.70;;;;;;;;;;5054105;28;20043;-64
2023/09/12 10:49:38;;;;;;;38.17;27.15;;;;;;;;;;5051585;28;20180;-63
2023/09/12 10:52:04;;;;;;;38.50;27.05;;;;;;;;;;5056115;28;20028;-63
2023/09/12 10:54:40;;;;;;;33.95;26.17;;;;;;;;;;5056683;28;20028;-64
2023/09/12 10:57:08;;;;;;;38.78;29.25;;;;;;;;;;5056679;28;21442;-64
2023/09/12 10:59:37;;;;;;;41.22;28.55;;;;;;;;;;5056791;28;20036;-64
2023/09/12 11:02:22;;;;;;;36.20;26.77;;;;;;;;;;5056893;28;20032;-70
2023/09/12 11:04:48;;;;;;;32.50;24.05;;;;;;;;;;5056545;28;20070;-70
2023/09/12 11:07:33;;;;;;;28.85;19.80;;;;;;;;;;5056420;28;21324;-70
2023/09/12 11:10:20;;;;;;;29.20;20.27;;;;;;;;;;5056526;28;20143;-70
2023/09/12 11:12:47;;;;;;;29.35;22.30;;;;;;;;;;5055276;28;21836;-70
2023/09/12 11:15:15;;;;;;;30.92;22.77;;;;;;;;;;5056938;28;20097;-70
2023/09/12 11:17:42;;;;;;;38.05;26.48;;;;;;;;;;5055755;28;20063;-70
2023/09/12 11:20:11;;;;;;;35.53;26.75;;;;;;;;;;5056061;28;20035;-70
2023/09/12 11:22:40;;;;;;;37.22;27.83;;;;;;;;;;5055057;28;22023;-70
2023/09/12 11:25:23;;;;;;;34.70;24.05;;;;;;;;;;5056001;28;20050;-70
2023/09/12 11:27:52;;;;;;;34.35;24.38;;;;;;;;;;5055566;28;20035;-70
2023/09/12 11:30:22;;;;;;;32.03;23.92;;;;;;;;;;5056012;28;20028;-70
2023/09/12 11:32:50;;;;;;;33.10;23.25;;;;;;;;;;5055326;28;20028;-70
2023/09/12 11:35:16;;;;;;;32.10;22.70;;;;;;;;;;5055643;28;20029;-70
2023/09/12 11:38:09;;;;;;;31.90;20.73;;;;;;;;;;5055657;28;20032;-70
2023/09/12 11:40:35;;;;;;;28.50;20.00;;;;;;;;;;5051719;28;20048;-70
2023/09/12 11:43:01;;;;;;;29.10;19.15;;;;;;;;;;5055367;28;20020;-70
2023/09/12 11:45:28;;;;;;;28.80;20.08;;;;;;;;;;5055176;28;20021;-70
2023/09/12 11:47:57;;;;;;;27.30;20.33;;;;;;;;;;5054168;28;20544;-70
2023/09/12 11:50:33;;;;;;;29.70;18.80;;;;;;;;;;5054995;28;20047;-70
2023/09/12 11:53:03;;;;;;;28.17;19.00;;;;;;;;;;5054605;28;20044;-70
2023/09/12 11:55:43;;;;;;;25.60;17.98;;;;;;;;;;5055934;28;20028;-70
2023/09/12 11:58:10;;;;;;;24.45;16.05;;;;;;;;;;5055351;28;20035;-70
2023/09/12 12:00:37;;;;;;;30.23;18.73;;;;;;;;;;5056191;28;20141;-70
2023/09/12 12:03:03;;;;;;;21.17;15.63;;;;;;;;;;5055431;28;20040;-70
2023/09/12 12:05:30;;;;;;;18.55;13.30;;;;;;;;;;5056360;28;20059;-70
2023/09/12 12:07:56;;;;;;;19.42;13.65;;;;;;;;;;5055640;28;20024;-70
2023/09/12 12:10:25;;;;;;;17.55;12.57;;;;;;;;;;5056176;28;20070;-70
2023/09/12 12:12:54;;;;;;;18.02;12.05;;;;;;;;;;5055605;28;20093;-70
2023/09/12 12:15:20;;;;;;;18.52;13.43;;;;;;;;;;5054981;28;20031;-70
2023/09/12 12:17:46;;;;;;;19.40;13.18;;;;;;;;;;5054271;28;20066;-70
2023/09/12 12:20:12;;;;;;;20.10;14.50;;;;;;;;;;5055326;28;20032;-70
2023/09/12 12:22:40;;;;;;;21.58;16.70;;;;;;;;;;5054977;28;20123;-70
2023/09/12 12:25:07;;;;;;;23.50;16.98;;;;;;;;;;5056014;28;20041;-70
2023/09/12 12:27:33;;;;;;;23.63;16.60;;;;;;;;;;5054198;28;20045;-70
2023/09/12 12:29:59;;;;;;;22.67;17.48;;;;;;;;;;5053795;28;20033;-70
2023/09/12 12:32:25;;;;;;;23.50;17.55;;;;;;;;;;5055499;28;20036;-69
2023/09/12 12:34:51;;;;;;;24.65;16.17;;;;;;;;;;5055006;28;20035;-70
2023/09/12 12:37:17;;;;;;;23.05;16.30;;;;;;;;;;5054892;28;20382;-70
2023/09/12 12:39:43;;;;;;;17.10;13.20;;;;;;;;;;5054403;28;20071;-70
2023/09/12 12:42:09;;;;;;;20.75;12.52;;;;;;;;;;5056421;28;20048;-70
2023/09/12 12:44:40;;;;;;;15.25;10.35;;;;;;;;;;5054704;28;20036;-70
2023/09/12 12:47:06;;;;;;;15.82;11.45;;;;;;;;;;5056744;28;20028;-70
2023/09/12 12:49:43;;;;;;;14.65;10.85;;;;;;;;;;5056091;28;20040;-70
2023/09/12 12:52:12;;;;;;;18.20;11.90;;;;;;;;;;5056719;28;20115;-70
2023/09/12 12:54:38;;;;;;;14.43;10.70;;;;;;;;;;5058742;28;20284;-71
2023/09/12 12:57:04;;;;;;;17.35;11.60;;;;;;;;;;5058560;28;20024;-71
2023/09/12 12:59:34;;;;;;;15.25;11.55;;;;;;;;;;5056715;28;20603;-71
2023/09/12 13:02:01;;;;;;;16.63;11.90;;;;;;;;;;5058414;28;20409;-71
2023/09/12 13:04:27;;;;;;;15.80;10.68;;;;;;;;;;5058762;28;20382;-70
2023/09/12 13:06:53;;;;;;;14.02;9.98;;;;;;;;;;5058635;28;20688;-71
2023/09/12 13:09:19;;;;;;;13.02;9.90;;;;;;;;;;5058277;28;20039;-71
2023/09/12 13:11:46;;;;;;;12.95;8.73;;;;;;;;;;5059036;28;20047;-71
2023/09/12 13:14:12;;;;;;;13.48;9.07;;;;;;;;;;5058298;28;20035;-71
2023/09/12 13:16:40;;;;;;;16.58;9.07;;;;;;;;;;5058205;28;20028;-71
2023/09/12 13:19:06;;;;;;;12.23;8.65;;;;;;;;;;5057917;28;20045;-71
2023/09/12 13:21:32;;;;;;;14.45;8.93;;;;;;;;;;5058138;28;20043;-70
2023/09/12 13:23:59;;;;;;;11.13;7.75;;;;;;;;;;5058210;28;20113;-71
2023/09/12 13:26:25;;;;;;;12.65;8.00;;;;;;;;;;5058348;28;20066;-71
2023/09/12 13:28:51;;;;;;;13.85;7.97;;;;;;;;;;5057881;28;20097;-71
2023/09/12 13:31:17;;;;;;;11.82;7.85;;;;;;;;;;5057957;28;20044;-71
2023/09/12 13:33:43;;;;;;;16.10;8.43;;;;;;;;;;5057591;28;20028;-71
2023/09/12 13:36:09;;;;;;;13.88;8.90;;;;;;;;;;5058430;28;20033;-71
2023/09/12 13:38:35;;;;;;;11.75;8.80;;;;;;;;;;5057101;28;20063;-70
2023/09/12 13:41:01;;;;;;;12.07;8.48;;;;;;;;;;5058328;28;21114;-71
2023/09/12 13:43:28;;;;;;;10.80;8.30;;;;;;;;;;5057470;28;20035;-71
2023/09/12 13:45:54;;;;;;;11.40;8.18;;;;;;;;;;5056965;28;20941;-71
2023/09/12 13:48:20;;;;;;;10.95;7.43;;;;;;;;;;5057211;28;20058;-70
2023/09/12 13:50:46;;;;;;;11.52;7.60;;;;;;;;;;5056135;28;20039;-71
2023/09/12 13:53:12;;;;;;;11.73;7.53;;;;;;;;;;5054937;28;20500;-71
2023/09/12 13:55:38;;;;;;;13.68;7.60;;;;;;;;;;5057161;28;20051;-71
2023/09/12 13:58:06;;;;;;;9.43;6.40;;;;;;;;;;5057484;28;20627;-71
2023/09/12 14:00:33;;;;;;;10.52;6.35;;;;;;;;;;5072498;28;20062;-70
2023/09/12 14:02:59;;;;;;;8.55;5.55;;;;;;;;;;5057452;28;20024;-70
2023/09/12 14:05:25;;;;;;;10.48;6.57;;;;;;;;;;5057850;28;20047;-70
2023/09/12 14:07:51;;;;;;;10.63;6.18;;;;;;;;;;5056803;28;20146;-71
2023/09/12 14:10:18;;;;;;;12.00;6.00;;;;;;;;;;5058915;28;20628;-70
2023/09/12 14:12:44;;;;;;;9.43;5.35;;;;;;;;;;5057472;28;20063;-71
2023/09/12 14:15:10;;;;;;;9.93;5.70;;;;;;;;;;5058129;28;20028;-71
2023/09/12 14:17:36;;;;;;;8.70;5.03;;;;;;;;;;5054692;28;21788;-70
2023/09/12 14:20:03;;;;;;;9.30;5.53;;;;;;;;;;5057061;28;20039;-71